Time;durP1;ratioP1;P1;durP2;ratioP2;P2;SDS_P1;SDS_P2;PMS_P1;PMS_P2;Temp;Humidity;BMP_temperature;BMP_pressure;BME280_temperature;BME280_humidity;BME280_pressure;Samples;Min_cycle;Max_cycle;Signal;HPM_P1;HPM_P2
2022/07/31 00:00:40;;;;;;;8.03;3.50;;;;;;;;;;5037733;28;20204;-71
2022/07/31 00:03:08;;;;;;;6.70;4.00;;;;;;;;;;5039047;28;20209;-71
2022/07/31 00:05:35;;;;;;;5.00;3.50;;;;;;;;;;5040493;28;20222;-71
2022/07/31 00:08:04;;;;;;;5.40;3.90;;;;;;;;;;5036110;28;20203;-71
2022/07/31 00:10:32;;;;;;;8.70;4.20;;;;;;;;;;5040877;28;20215;-71
2022/07/31 00:12:59;;;;;;;7.33;3.67;;;;;;;;;;5037795;28;20691;-71
2022/07/31 00:15:26;;;;;;;5.30;3.60;;;;;;;;;;5037896;28;20219;-71
2022/07/31 00:17:53;;;;;;;5.30;3.70;;;;;;;;;;5035169;28;20200;-71
2022/07/31 00:20:20;;;;;;;7.47;3.60;;;;;;;;;;5039164;28;20205;-71
2022/07/31 00:22:49;;;;;;;7.77;3.77;;;;;;;;;;5034578;28;20215;-71
2022/07/31 00:25:18;;;;;;;6.13;3.90;;;;;;;;;;5038695;28;20210;-71
2022/07/31 00:27:45;;;;;;;4.97;3.80;;;;;;;;;;5038953;28;20242;-71
2022/07/31 00:30:13;;;;;;;6.90;4.03;;;;;;;;;;5039806;28;20219;-71
2022/07/31 00:32:40;;;;;;;5.83;3.83;;;;;;;;;;5039989;28;20252;-72
2022/07/31 00:35:08;;;;;;;5.67;3.97;;;;;;;;;;5036810;28;20207;-71
2022/07/31 00:37:36;;;;;;;5.17;3.77;;;;;;;;;;5039693;28;20225;-71
2022/07/31 00:40:04;;;;;;;13.97;4.20;;;;;;;;;;5036565;28;20204;-71
2022/07/31 00:42:33;;;;;;;7.53;3.70;;;;;;;;;;5044297;28;20209;-71
2022/07/31 00:45:00;;;;;;;5.97;4.00;;;;;;;;;;5039933;28;20200;-71
2022/07/31 00:47:27;;;;;;;11.00;3.60;;;;;;;;;;5039523;28;20207;-71
2022/07/31 00:49:54;;;;;;;8.07;3.67;;;;;;;;;;5038693;28;20767;-71
2022/07/31 00:52:22;;;;;;;6.33;3.40;;;;;;;;;;5039982;28;20200;-71
2022/07/31 00:54:49;;;;;;;6.17;3.60;;;;;;;;;;5038778;28;20214;-71
2022/07/31 00:57:16;;;;;;;7.73;3.60;;;;;;;;;;5039054;28;20218;-71
2022/07/31 00:59:45;;;;;;;4.37;3.57;;;;;;;;;;5039248;28;20196;-71
2022/07/31 01:02:12;;;;;;;4.63;3.37;;;;;;;;;;5041366;28;20206;-71
2022/07/31 01:04:39;;;;;;;5.43;3.50;;;;;;;;;;5035746;28;21957;-71
2022/07/31 01:07:06;;;;;;;7.00;3.63;;;;;;;;;;5037852;28;20226;-71
2022/07/31 01:09:33;;;;;;;7.57;3.90;;;;;;;;;;5037229;28;20229;-71
2022/07/31 01:12:03;;;;;;;5.27;3.83;;;;;;;;;;5038982;28;20653;-71
2022/07/31 01:14:33;;;;;;;4.97;4.03;;;;;;;;;;5039391;28;20294;-71
2022/07/31 01:17:03;;;;;;;7.30;3.67;;;;;;;;;;5037067;28;20218;-71
2022/07/31 01:19:32;;;;;;;6.83;3.67;;;;;;;;;;5038570;28;20207;-72
2022/07/31 01:22:05;;;;;;;8.77;3.80;;;;;;;;;;5037739;28;20206;-71
2022/07/31 01:24:42;;;;;;;6.03;3.50;;;;;;;;;;5036702;28;20588;-71
2022/07/31 01:27:12;;;;;;;7.00;3.50;;;;;;;;;;5035708;28;20613;-71
2022/07/31 01:29:42;;;;;;;4.83;3.37;;;;;;;;;;5042658;28;20252;-71
2022/07/31 01:32:11;;;;;;;5.80;3.43;;;;;;;;;;5038650;28;20658;-71
2022/07/31 01:34:40;;;;;;;8.13;3.53;;;;;;;;;;5036136;28;20245;-71
2022/07/31 01:37:11;;;;;;;4.60;3.57;;;;;;;;;;5036001;28;20760;-71
2022/07/31 01:39:38;;;;;;;4.97;3.30;;;;;;;;;;5034787;28;20741;-71
2022/07/31 01:42:08;;;;;;;4.37;3.00;;;;;;;;;;5034702;28;20211;-71
2022/07/31 01:44:39;;;;;;;6.07;3.47;;;;;;;;;;5040484;28;20210;-71
2022/07/31 01:47:08;;;;;;;7.27;3.53;;;;;;;;;;5036019;28;20231;-71
2022/07/31 01:49:36;;;;;;;4.50;3.37;;;;;;;;;;5038437;28;20210;-71
2022/07/31 01:52:04;;;;;;;6.80;3.70;;;;;;;;;;5037718;28;20208;-71
2022/07/31 01:54:32;;;;;;;8.73;3.90;;;;;;;;;;5040741;28;20595;-71
2022/07/31 01:57:01;;;;;;;4.50;3.43;;;;;;;;;;5036433;28;20222;-71
2022/07/31 01:59:29;;;;;;;9.63;3.80;;;;;;;;;;5038114;28;20206;-71
2022/07/31 02:01:57;;;;;;;6.37;3.30;;;;;;;;;;5037434;28;20207;-71
2022/07/31 02:04:25;;;;;;;5.37;3.70;;;;;;;;;;5038559;28;20211;-71
2022/07/31 02:06:53;;;;;;;5.73;3.93;;;;;;;;;;5034927;28;20230;-71
2022/07/31 02:09:20;;;;;;;6.10;3.43;;;;;;;;;;5042037;28;20238;-70
2022/07/31 02:11:48;;;;;;;4.43;3.73;;;;;;;;;;5036218;28;20224;-71
2022/07/31 02:14:17;;;;;;;7.50;3.60;;;;;;;;;;5038203;28;20211;-71
2022/07/31 02:16:44;;;;;;;7.03;3.97;;;;;;;;;;5036639;28;20238;-72
2022/07/31 02:19:13;;;;;;;5.53;3.53;;;;;;;;;;5038128;28;20212;-72
2022/07/31 02:21:42;;;;;;;6.23;3.73;;;;;;;;;;5035234;28;20208;-71
2022/07/31 02:24:09;;;;;;;5.30;3.73;;;;;;;;;;5037640;28;20658;-72
2022/07/31 02:26:37;;;;;;;5.93;3.93;;;;;;;;;;5038894;28;20596;-72
2022/07/31 02:29:05;;;;;;;6.73;3.73;;;;;;;;;;5037822;28;20211;-71
2022/07/31 02:31:32;;;;;;;8.20;3.70;;;;;;;;;;5037715;28;20234;-71
2022/07/31 02:33:59;;;;;;;7.37;3.70;;;;;;;;;;5034993;28;20210;-71
2022/07/31 02:36:27;;;;;;;7.30;4.13;;;;;;;;;;5035611;28;20250;-71
2022/07/31 02:38:57;;;;;;;4.97;3.83;;;;;;;;;;5036131;28;20742;-70
2022/07/31 02:41:24;;;;;;;6.87;3.90;;;;;;;;;;5037772;28;20239;-71
2022/07/31 02:43:52;;;;;;;4.67;3.83;;;;;;;;;;5035596;28;20210;-71
2022/07/31 02:46:26;;;;;;;7.23;3.77;;;;;;;;;;5040765;28;20225;-69
2022/07/31 02:48:54;;;;;;;5.20;3.73;;;;;;;;;;5036735;28;20203;-71
2022/07/31 02:51:22;;;;;;;5.73;3.83;;;;;;;;;;5039046;28;20591;-71
2022/07/31 02:53:49;;;;;;;12.20;4.00;;;;;;;;;;5039968;28;20206;-72
2022/07/31 02:56:18;;;;;;;6.20;4.00;;;;;;;;;;5039760;28;20313;-71
2022/07/31 02:58:45;;;;;;;6.03;4.27;;;;;;;;;;5038583;28;20597;-71
2022/07/31 03:01:13;;;;;;;6.13;4.20;;;;;;;;;;5043558;28;20204;-72
2022/07/31 03:03:40;;;;;;;7.50;4.07;;;;;;;;;;5043566;28;20681;-72
2022/07/31 03:06:07;;;;;;;5.57;4.10;;;;;;;;;;5041998;28;20281;-71
2022/07/31 03:08:34;;;;;;;6.80;3.87;;;;;;;;;;5042348;28;20293;-71
2022/07/31 03:11:01;;;;;;;4.70;4.07;;;;;;;;;;5039507;28;21287;-71
2022/07/31 03:13:31;;;;;;;4.70;3.97;;;;;;;;;;5042806;28;20232;-71
2022/07/31 03:15:58;;;;;;;7.87;4.00;;;;;;;;;;5041142;28;20228;-71
2022/07/31 03:18:26;;;;;;;9.93;4.10;;;;;;;;;;5040786;28;20218;-71
2022/07/31 03:20:54;;;;;;;7.27;4.30;;;;;;;;;;5040403;28;20286;-71
2022/07/31 03:23:23;;;;;;;6.53;4.30;;;;;;;;;;5041129;28;20214;-72
2022/07/31 03:25:50;;;;;;;11.83;4.90;;;;;;;;;;5037678;28;20309;-73
2022/07/31 03:28:19;;;;;;;8.83;4.53;;;;;;;;;;5042011;28;20581;-71
2022/07/31 03:30:48;;;;;;;7.30;4.53;;;;;;;;;;5042519;28;20322;-71
2022/07/31 03:33:15;;;;;;;5.80;3.97;;;;;;;;;;5040944;28;20203;-70
2022/07/31 03:35:42;;;;;;;5.40;4.17;;;;;;;;;;5042140;28;20235;-71
2022/07/31 03:38:09;;;;;;;5.57;4.43;;;;;;;;;;5039588;28;20208;-71
2022/07/31 03:40:36;;;;;;;9.37;4.27;;;;;;;;;;5042015;28;20226;-70
2022/07/31 03:43:04;;;;;;;7.73;4.90;;;;;;;;;;5038389;28;20657;-71
2022/07/31 03:45:31;;;;;;;6.60;4.50;;;;;;;;;;5041612;28;20226;-70
2022/07/31 03:48:00;;;;;;;6.90;4.57;;;;;;;;;;5037063;28;20207;-70
2022/07/31 03:50:28;;;;;;;7.50;4.43;;;;;;;;;;5036113;28;20246;-70
2022/07/31 03:52:55;;;;;;;6.93;4.60;;;;;;;;;;5039992;28;20653;-71
2022/07/31 03:55:22;;;;;;;6.57;4.53;;;;;;;;;;5038917;28;20235;-71
2022/07/31 03:57:49;;;;;;;8.10;4.53;;;;;;;;;;5037785;28;21108;-71
2022/07/31 04:00:19;;;;;;;6.23;4.73;;;;;;;;;;5038708;28;20210;-71
2022/07/31 04:02:47;;;;;;;8.03;4.47;;;;;;;;;;5037352;28;20601;-71
2022/07/31 04:05:16;;;;;;;6.80;4.30;;;;;;;;;;5037020;28;20709;-71
2022/07/31 04:07:43;;;;;;;6.20;4.30;;;;;;;;;;5040200;28;20225;-71
2022/07/31 04:10:11;;;;;;;5.90;4.43;;;;;;;;;;5040406;28;20214;-71
2022/07/31 04:12:38;;;;;;;6.73;4.77;;;;;;;;;;5041522;28;20203;-71
2022/07/31 04:15:05;;;;;;;7.17;4.33;;;;;;;;;;5039359;28;20234;-71
2022/07/31 04:17:33;;;;;;;10.97;4.50;;;;;;;;;;5036622;28;20591;-70
2022/07/31 04:20:00;;;;;;;6.83;4.40;;;;;;;;;;5037625;28;20195;-71
2022/07/31 04:22:28;;;;;;;9.27;4.77;;;;;;;;;;5036514;28;20219;-72
2022/07/31 04:24:56;;;;;;;6.00;4.30;;;;;;;;;;5038001;28;20253;-72
2022/07/31 04:27:23;;;;;;;7.30;4.20;;;;;;;;;;5040115;28;20245;-71
2022/07/31 04:29:50;;;;;;;6.87;3.80;;;;;;;;;;5039674;28;20578;-71
2022/07/31 04:32:18;;;;;;;8.43;3.63;;;;;;;;;;5039640;28;20757;-71
2022/07/31 04:34:45;;;;;;;8.30;4.03;;;;;;;;;;5039051;28;20214;-71
2022/07/31 04:37:12;;;;;;;6.07;3.70;;;;;;;;;;5039843;28;20677;-72
2022/07/31 04:39:40;;;;;;;4.87;3.47;;;;;;;;;;5036527;28;20310;-71
2022/07/31 04:42:08;;;;;;;6.60;3.80;;;;;;;;;;5036924;28;20199;-71
2022/07/31 04:44:35;;;;;;;4.83;3.70;;;;;;;;;;5038644;28;20243;-71
2022/07/31 04:47:03;;;;;;;8.30;3.83;;;;;;;;;;5038806;28;20223;-71
2022/07/31 04:49:31;;;;;;;6.13;3.93;;;;;;;;;;5040740;28;20569;-71
2022/07/31 04:51:58;;;;;;;6.67;3.77;;;;;;;;;;5041159;28;20230;-71
2022/07/31 04:54:25;;;;;;;4.63;3.77;;;;;;;;;;5040003;28;20207;-71
2022/07/31 04:56:54;;;;;;;7.47;4.03;;;;;;;;;;5038275;28;20219;-71
2022/07/31 04:59:22;;;;;;;9.53;4.00;;;;;;;;;;5037771;28;20848;-71
2022/07/31 05:01:49;;;;;;;6.57;3.80;;;;;;;;;;5035575;28;20195;-72
2022/07/31 05:04:17;;;;;;;6.20;4.07;;;;;;;;;;5036855;28;20215;-71
2022/07/31 05:06:45;;;;;;;5.37;3.97;;;;;;;;;;5039490;28;20215;-72
2022/07/31 05:09:13;;;;;;;7.57;4.37;;;;;;;;;;5038847;28;20199;-71
2022/07/31 05:11:41;;;;;;;8.93;4.30;;;;;;;;;;5038176;28;20223;-71
2022/07/31 05:14:10;;;;;;;5.97;4.50;;;;;;;;;;5034858;28;20215;-72
2022/07/31 05:16:38;;;;;;;6.53;4.50;;;;;;;;;;5040776;28;20215;-73
2022/07/31 05:19:06;;;;;;;7.17;4.33;;;;;;;;;;5037433;28;20207;-72
2022/07/31 05:21:33;;;;;;;7.77;4.43;;;;;;;;;;5037318;28;20202;-73
2022/07/31 05:24:01;;;;;;;13.00;4.60;;;;;;;;;;5037398;28;20683;-73
2022/07/31 05:26:29;;;;;;;6.03;4.37;;;;;;;;;;5036492;28;20227;-73
2022/07/31 05:28:58;;;;;;;8.60;3.77;;;;;;;;;;5038065;28;20207;-73
2022/07/31 05:31:27;;;;;;;4.73;3.90;;;;;;;;;;5039576;28;20226;-73
2022/07/31 05:33:54;;;;;;;5.90;4.30;;;;;;;;;;5040231;28;20297;-72
2022/07/31 05:36:21;;;;;;;5.30;4.37;;;;;;;;;;5039176;28;20341;-72
2022/07/31 05:38:49;;;;;;;5.17;4.30;;;;;;;;;;5038387;28;20571;-70
2022/07/31 05:41:16;;;;;;;5.23;4.23;;;;;;;;;;5037362;28;20261;-70
2022/07/31 05:43:43;;;;;;;6.53;4.10;;;;;;;;;;5036919;28;20203;-73
2022/07/31 05:46:12;;;;;;;7.03;4.43;;;;;;;;;;5038156;28;20222;-73
2022/07/31 05:48:41;;;;;;;6.37;4.13;;;;;;;;;;5035135;28;20218;-73
2022/07/31 05:51:09;;;;;;;5.13;4.10;;;;;;;;;;5039033;28;20211;-72
2022/07/31 05:53:37;;;;;;;6.63;4.17;;;;;;;;;;5041504;28;20204;-72
2022/07/31 05:56:05;;;;;;;5.53;4.03;;;;;;;;;;5036283;28;20227;-72
2022/07/31 05:58:32;;;;;;;7.80;4.07;;;;;;;;;;5037990;28;20202;-72
2022/07/31 06:01:00;;;;;;;10.07;4.50;;;;;;;;;;5034367;28;20206;-72
2022/07/31 06:03:27;;;;;;;7.50;4.37;;;;;;;;;;5035610;28;20637;-72
2022/07/31 06:05:56;;;;;;;7.90;4.70;;;;;;;;;;5038371;28;20218;-72
2022/07/31 06:08:25;;;;;;;6.27;4.30;;;;;;;;;;5037418;28;20572;-70
2022/07/31 06:10:52;;;;;;;5.50;4.10;;;;;;;;;;5037276;28;20276;-73
2022/07/31 06:13:19;;;;;;;6.13;4.27;;;;;;;;;;5036257;28;20744;-73
2022/07/31 06:15:46;;;;;;;6.80;4.00;;;;;;;;;;5035820;28;20727;-73
2022/07/31 06:18:15;;;;;;;5.97;4.23;;;;;;;;;;5035995;28;20698;-73
2022/07/31 06:20:42;;;;;;;13.33;4.50;;;;;;;;;;5038394;28;20211;-73
2022/07/31 06:23:10;;;;;;;6.80;3.90;;;;;;;;;;5033832;28;20571;-73
2022/07/31 06:25:37;;;;;;;6.57;3.90;;;;;;;;;;5033286;28;20223;-73
2022/07/31 06:28:05;;;;;;;9.67;4.10;;;;;;;;;;5039015;28;20577;-73
2022/07/31 06:30:32;;;;;;;7.33;4.17;;;;;;;;;;5039826;28;20202;-71
2022/07/31 06:32:59;;;;;;;8.40;4.17;;;;;;;;;;5042457;28;20218;-72
2022/07/31 06:35:26;;;;;;;6.13;4.10;;;;;;;;;;5039397;28;20727;-71
2022/07/31 06:37:53;;;;;;;8.60;3.90;;;;;;;;;;5042186;28;20203;-71
2022/07/31 06:40:21;;;;;;;8.17;3.90;;;;;;;;;;5042940;28;20199;-71
2022/07/31 06:42:49;;;;;;;6.03;4.50;;;;;;;;;;5039579;28;20203;-71
2022/07/31 06:45:16;;;;;;;8.60;4.30;;;;;;;;;;5040836;28;20204;-72
2022/07/31 06:47:43;;;;;;;7.53;3.90;;;;;;;;;;5041865;28;20215;-71
2022/07/31 06:50:10;;;;;;;9.03;4.00;;;;;;;;;;5039038;28;20222;-72
2022/07/31 06:52:37;;;;;;;6.73;3.90;;;;;;;;;;5041328;28;20322;-71
2022/07/31 06:55:05;;;;;;;6.50;3.60;;;;;;;;;;5036408;28;20207;-72
2022/07/31 06:57:34;;;;;;;5.30;3.60;;;;;;;;;;5041666;28;20674;-71
2022/07/31 07:00:01;;;;;;;7.03;3.70;;;;;;;;;;5039101;28;20654;-72
2022/07/31 07:02:28;;;;;;;6.80;4.13;;;;;;;;;;5037723;28;20661;-72
2022/07/31 07:04:55;;;;;;;7.23;3.90;;;;;;;;;;5038836;28;20297;-72
2022/07/31 07:07:22;;;;;;;5.13;3.63;;;;;;;;;;5040480;28;20219;-72
2022/07/31 07:09:50;;;;;;;6.87;3.70;;;;;;;;;;5038332;28;20214;-72
2022/07/31 07:12:17;;;;;;;4.20;3.33;;;;;;;;;;5040104;28;20235;-72
2022/07/31 07:14:45;;;;;;;6.20;3.60;;;;;;;;;;5037107;28;20710;-72
2022/07/31 07:17:12;;;;;;;7.97;3.87;;;;;;;;;;5038458;28;20219;-71
2022/07/31 07:19:41;;;;;;;6.23;3.53;;;;;;;;;;5038689;28;20305;-72
2022/07/31 07:22:08;;;;;;;4.23;3.40;;;;;;;;;;5035623;28;20203;-71
2022/07/31 07:24:35;;;;;;;4.47;3.27;;;;;;;;;;5038024;28;20813;-71
2022/07/31 07:27:02;;;;;;;5.60;3.30;;;;;;;;;;5038224;28;20222;-72
2022/07/31 07:29:29;;;;;;;3.80;2.87;;;;;;;;;;5040301;28;20888;-72
2022/07/31 07:31:58;;;;;;;5.70;3.53;;;;;;;;;;5039751;28;20222;-71
2022/07/31 07:34:26;;;;;;;7.40;4.43;;;;;;;;;;5040016;28;20206;-72
2022/07/31 07:36:54;;;;;;;5.90;4.60;;;;;;;;;;5038578;28;20215;-71
2022/07/31 07:39:21;;;;;;;7.13;4.03;;;;;;;;;;5038152;28;20203;-70
2022/07/31 07:41:48;;;;;;;4.73;3.40;;;;;;;;;;5036477;28;20302;-71
2022/07/31 07:44:15;;;;;;;5.53;3.13;;;;;;;;;;5037743;28;20200;-69
2022/07/31 07:46:42;;;;;;;6.77;2.67;;;;;;;;;;5039827;28;20223;-71
2022/07/31 07:49:11;;;;;;;4.17;2.50;;;;;;;;;;5040416;28;20232;-71
2022/07/31 07:51:38;;;;;;;4.47;2.67;;;;;;;;;;5039926;28;20328;-71
2022/07/31 07:54:05;;;;;;;5.87;2.70;;;;;;;;;;5037723;28;20282;-72
2022/07/31 07:56:32;;;;;;;5.43;2.93;;;;;;;;;;5038077;28;20311;-71
2022/07/31 07:59:00;;;;;;;6.50;2.93;;;;;;;;;;5037600;28;20286;-71
2022/07/31 08:01:27;;;;;;;6.73;2.57;;;;;;;;;;5046900;28;20203;-70
2022/07/31 08:03:54;;;;;;;4.00;2.63;;;;;;;;;;5042008;28;20225;-71
2022/07/31 08:06:23;;;;;;;4.07;3.00;;;;;;;;;;5044124;28;20246;-70
2022/07/31 08:08:50;;;;;;;6.87;2.90;;;;;;;;;;5039160;28;20227;-71
2022/07/31 08:11:17;;;;;;;5.03;2.97;;;;;;;;;;5040625;28;20661;-70
2022/07/31 08:13:45;;;;;;;4.90;3.00;;;;;;;;;;5039490;28;20642;-71
2022/07/31 08:16:12;;;;;;;4.27;2.70;;;;;;;;;;5040320;28;20232;-71
2022/07/31 08:18:39;;;;;;;5.13;2.73;;;;;;;;;;5043400;28;20217;-70
2022/07/31 08:21:06;;;;;;;4.00;2.60;;;;;;;;;;5037637;28;20214;-71
2022/07/31 08:23:35;;;;;;;6.47;2.70;;;;;;;;;;5041176;28;20218;-70
2022/07/31 08:26:03;;;;;;;4.60;3.00;;;;;;;;;;5041721;28;20947;-70
2022/07/31 08:28:30;;;;;;;4.97;2.67;;;;;;;;;;5041793;28;20204;-71
2022/07/31 08:30:57;;;;;;;3.97;2.57;;;;;;;;;;5042059;28;20206;-70
2022/07/31 08:33:24;;;;;;;6.03;2.70;;;;;;;;;;5040401;28;20334;-71
2022/07/31 08:35:52;;;;;;;5.37;2.90;;;;;;;;;;5041997;28;20317;-71
2022/07/31 08:38:19;;;;;;;3.57;2.40;;;;;;;;;;5040939;28;20207;-71
2022/07/31 08:40:47;;;;;;;4.40;2.50;;;;;;;;;;5043290;28;20272;-71
2022/07/31 08:43:14;;;;;;;5.67;2.77;;;;;;;;;;5043965;28;20207;-70
2022/07/31 08:45:42;;;;;;;4.53;2.50;;;;;;;;;;5047918;28;20227;-71
2022/07/31 08:48:10;;;;;;;7.47;2.53;;;;;;;;;;5037754;28;20725;-71
2022/07/31 08:50:39;;;;;;;3.80;2.40;;;;;;;;;;5043202;28;20233;-71
2022/07/31 08:53:07;;;;;;;5.00;2.40;;;;;;;;;;5038946;28;20232;-71
2022/07/31 08:55:34;;;;;;;3.03;2.37;;;;;;;;;;5042704;28;20310;-71
2022/07/31 08:58:03;;;;;;;6.27;2.50;;;;;;;;;;5037433;28;20199;-71
2022/07/31 09:00:32;;;;;;;3.33;2.30;;;;;;;;;;5039416;28;20206;-70
2022/07/31 09:03:00;;;;;;;5.33;2.37;;;;;;;;;;5037743;28;20203;-70
2022/07/31 09:05:27;;;;;;;6.03;2.80;;;;;;;;;;5040460;28;20685;-70
2022/07/31 09:07:54;;;;;;;4.70;2.13;;;;;;;;;;5042064;28;20207;-71
2022/07/31 09:10:23;;;;;;;5.20;2.23;;;;;;;;;;5041828;28;20196;-71
2022/07/31 09:12:50;;;;;;;4.20;2.40;;;;;;;;;;5037914;28;20222;-71
2022/07/31 09:15:23;;;;;;;8.97;2.53;;;;;;;;;;5040671;28;20500;-71
2022/07/31 09:17:51;;;;;;;2.90;2.10;;;;;;;;;;5039066;28;20213;-72
2022/07/31 09:20:19;;;;;;;4.23;2.40;;;;;;;;;;5038444;28;20206;-71
2022/07/31 09:22:47;;;;;;;4.63;2.20;;;;;;;;;;5036428;28;20207;-71
2022/07/31 09:25:17;;;;;;;5.73;2.40;;;;;;;;;;5038333;28;20207;-71
2022/07/31 09:27:46;;;;;;;5.37;2.30;;;;;;;;;;5037108;28;20223;-71
2022/07/31 09:30:14;;;;;;;3.73;2.23;;;;;;;;;;5037836;28;20206;-71
2022/07/31 09:32:44;;;;;;;5.67;2.40;;;;;;;;;;5038312;28;20238;-71
2022/07/31 09:35:12;;;;;;;3.53;2.53;;;;;;;;;;5038119;28;20294;-71
2022/07/31 09:37:40;;;;;;;3.80;2.33;;;;;;;;;;5038971;28;20395;-71
2022/07/31 09:40:08;;;;;;;4.80;2.43;;;;;;;;;;5039688;28;20216;-71
2022/07/31 09:42:36;;;;;;;7.37;2.60;;;;;;;;;;5033078;28;20205;-71
2022/07/31 09:45:04;;;;;;;3.00;2.10;;;;;;;;;;5035269;28;20258;-71
2022/07/31 09:47:32;;;;;;;7.70;2.53;;;;;;;;;;5033451;28;20227;-72
2022/07/31 09:50:01;;;;;;;4.20;2.30;;;;;;;;;;5036090;28;20671;-71
2022/07/31 09:52:29;;;;;;;3.23;2.30;;;;;;;;;;5034289;28;20317;-72
2022/07/31 09:55:04;;;;;;;3.73;2.40;;;;;;;;;;5040854;28;20204;-71
2022/07/31 09:57:33;;;;;;;3.30;2.47;;;;;;;;;;5041882;28;20198;-71
2022/07/31 10:00:00;;;;;;;4.03;2.70;;;;;;;;;;5038729;28;20238;-71
2022/07/31 10:02:27;;;;;;;4.40;2.30;;;;;;;;;;5040888;28;20278;-70
2022/07/31 10:04:55;;;;;;;6.80;2.20;;;;;;;;;;5041221;28;20225;-70
2022/07/31 10:07:26;;;;;;;3.87;2.20;;;;;;;;;;5034156;28;20223;-72
2022/07/31 10:09:54;;;;;;;4.10;2.17;;;;;;;;;;5035406;28;20210;-71
2022/07/31 10:12:22;;;;;;;4.20;2.33;;;;;;;;;;5038370;28;20204;-69
2022/07/31 10:14:51;;;;;;;6.77;2.47;;;;;;;;;;5038398;28;20662;-70
2022/07/31 10:17:21;;;;;;;3.43;2.33;;;;;;;;;;5039834;28;20310;-70
2022/07/31 10:19:54;;;;;;;4.07;2.40;;;;;;;;;;5037611;28;20210;-71
2022/07/31 10:22:23;;;;;;;3.43;2.00;;;;;;;;;;5036444;28;20569;-71
2022/07/31 10:24:52;;;;;;;4.00;1.97;;;;;;;;;;5035981;28;20205;-72
2022/07/31 10:27:20;;;;;;;9.47;2.20;;;;;;;;;;5036221;28;20223;-72
2022/07/31 10:29:47;;;;;;;2.53;1.70;;;;;;;;;;5037869;28;20195;-70
2022/07/31 10:32:15;;;;;;;5.50;2.47;;;;;;;;;;5037913;28;20231;-69
2022/07/31 10:34:42;;;;;;;4.17;1.90;;;;;;;;;;5038889;28;20298;-70
2022/07/31 10:37:10;;;;;;;4.07;1.80;;;;;;;;;;5034385;28;20230;-70
2022/07/31 10:39:42;;;;;;;5.20;1.70;;;;;;;;;;5036321;28;20283;-70
2022/07/31 10:42:16;;;;;;;7.43;1.80;;;;;;;;;;5035556;28;20686;-72
2022/07/31 10:44:46;;;;;;;3.80;1.43;;;;;;;;;;5037018;28;20210;-72
2022/07/31 10:47:13;;;;;;;3.30;1.77;;;;;;;;;;5036682;28;20255;-73
2022/07/31 10:49:41;;;;;;;3.33;1.70;;;;;;;;;;5034633;28;20207;-73
2022/07/31 10:52:09;;;;;;;2.80;1.53;;;;;;;;;;5031666;28;20207;-73
2022/07/31 10:54:40;;;;;;;3.70;1.80;;;;;;;;;;5032352;28;20736;-70
2022/07/31 10:57:07;;;;;;;3.47;1.60;;;;;;;;;;5029448;28;20231;-71
2022/07/31 10:59:36;;;;;;;2.57;1.70;;;;;;;;;;5036281;28;20325;-71
2022/07/31 11:02:03;;;;;;;4.83;1.80;;;;;;;;;;5038733;28;20758;-71
2022/07/31 11:04:32;;;;;;;4.07;1.70;;;;;;;;;;5033380;28;20200;-71
2022/07/31 11:06:59;;;;;;;6.03;1.70;;;;;;;;;;5039030;28;20314;-71
2022/07/31 11:09:27;;;;;;;4.63;1.40;;;;;;;;;;5038217;28;20678;-71
2022/07/31 11:12:04;;;;;;;2.03;1.40;;;;;;;;;;5031524;28;20666;-72
2022/07/31 11:14:32;;;;;;;3.57;1.77;;;;;;;;;;5043092;28;20258;-70
2022/07/31 11:17:00;;;;;;;3.10;1.63;;;;;;;;;;5038204;28;20448;-71
2022/07/31 11:19:37;;;;;;;4.53;1.70;;;;;;;;;;5039309;28;20202;-72
2022/07/31 11:22:09;;;;;;;4.10;1.77;;;;;;;;;;5034751;28;20215;-71
2022/07/31 11:24:38;;;;;;;2.53;1.70;;;;;;;;;;5043142;28;20654;-71
2022/07/31 11:27:05;;;;;;;4.40;1.67;;;;;;;;;;5039895;28;20222;-71
2022/07/31 11:29:34;;;;;;;1.77;1.40;;;;;;;;;;5038006;28;20202;-71
2022/07/31 11:32:13;;;;;;;5.97;1.50;;;;;;;;;;5040571;28;20669;-70
2022/07/31 11:34:47;;;;;;;2.93;1.57;;;;;;;;;;5044025;28;20242;-71
2022/07/31 11:37:16;;;;;;;2.87;1.77;;;;;;;;;;5042937;28;20233;-71
2022/07/31 11:39:44;;;;;;;2.30;1.67;;;;;;;;;;5040065;28;20349;-70
2022/07/31 11:42:11;;;;;;;4.03;1.70;;;;;;;;;;5039576;28;20203;-70
2022/07/31 11:44:38;;;;;;;2.10;1.40;;;;;;;;;;5040545;28;20195;-71
2022/07/31 11:47:07;;;;;;;3.13;1.70;;;;;;;;;;5039800;28;20227;-70
2022/07/31 11:49:36;;;;;;;3.93;1.87;;;;;;;;;;5035020;28;20684;-71
2022/07/31 11:52:03;;;;;;;2.77;1.77;;;;;;;;;;5037667;28;20209;-70
2022/07/31 11:54:30;;;;;;;5.10;1.90;;;;;;;;;;5038768;28;20321;-71
2022/07/31 11:56:58;;;;;;;3.33;1.80;;;;;;;;;;5039960;28;20272;-70
2022/07/31 11:59:31;;;;;;;4.40;1.50;;;;;;;;;;5035097;28;20763;-71
2022/07/31 12:02:07;;;;;;;4.17;1.50;;;;;;;;;;5042508;28;20206;-70
2022/07/31 12:04:36;;;;;;;6.03;2.07;;;;;;;;;;5040910;28;20230;-71
2022/07/31 12:07:03;;;;;;;3.20;1.70;;;;;;;;;;5041772;28;20744;-70
2022/07/31 12:09:31;;;;;;;3.17;1.53;;;;;;;;;;5043001;28;20211;-70
2022/07/31 12:11:58;;;;;;;4.33;1.60;;;;;;;;;;5042029;28;20208;-71
2022/07/31 12:14:32;;;;;;;3.10;1.80;;;;;;;;;;5040568;28;20233;-72
2022/07/31 12:16:59;;;;;;;4.07;1.70;;;;;;;;;;5046820;28;20226;-71
2022/07/31 12:19:29;;;;;;;4.53;1.60;;;;;;;;;;5043281;28;20207;-71
2022/07/31 12:21:56;;;;;;;5.20;1.80;;;;;;;;;;5041525;28;20215;-71
2022/07/31 12:24:24;;;;;;;3.13;1.80;;;;;;;;;;5041813;28;20693;-71
2022/07/31 12:26:52;;;;;;;3.40;2.20;;;;;;;;;;5045879;28;20219;-71
2022/07/31 12:29:20;;;;;;;3.07;1.77;;;;;;;;;;5044209;28;20208;-71
2022/07/31 12:31:48;;;;;;;2.93;1.90;;;;;;;;;;5043241;28;20290;-71
2022/07/31 12:34:25;;;;;;;2.57;1.90;;;;;;;;;;5040476;28;20219;-71
2022/07/31 12:36:59;;;;;;;3.50;1.90;;;;;;;;;;5042767;28;20231;-71
2022/07/31 12:39:26;;;;;;;2.77;1.77;;;;;;;;;;5042489;28;20272;-70
2022/07/31 12:41:53;;;;;;;2.63;1.80;;;;;;;;;;5046675;28;20546;-71
2022/07/31 12:44:20;;;;;;;3.73;1.80;;;;;;;;;;5044443;28;20561;-72
2022/07/31 12:46:47;;;;;;;2.90;2.00;;;;;;;;;;5043148;28;20235;-72
2022/07/31 12:49:15;;;;;;;3.40;2.20;;;;;;;;;;5045593;28;20201;-71
2022/07/31 12:51:42;;;;;;;3.30;2.00;;;;;;;;;;5042477;28;20199;-70
2022/07/31 12:54:11;;;;;;;4.23;2.10;;;;;;;;;;5041903;28;20251;-71
2022/07/31 12:56:38;;;;;;;4.83;1.83;;;;;;;;;;5043151;28;20227;-70
2022/07/31 12:59:06;;;;;;;3.00;2.00;;;;;;;;;;5044534;28;20222;-71
2022/07/31 13:01:35;;;;;;;3.20;2.00;;;;;;;;;;5043416;28;20199;-71
2022/07/31 13:04:04;;;;;;;2.47;1.80;;;;;;;;;;5045213;28;20289;-71
2022/07/31 13:06:32;;;;;;;5.77;2.03;;;;;;;;;;5041440;28;20222;-70
2022/07/31 13:08:59;;;;;;;4.13;1.97;;;;;;;;;;5039994;28;20385;-70
2022/07/31 13:11:31;;;;;;;7.03;2.20;;;;;;;;;;5039968;28;20231;-71
2022/07/31 13:14:00;;;;;;;3.43;2.10;;;;;;;;;;5041679;28;20230;-70
2022/07/31 13:16:27;;;;;;;2.60;1.90;;;;;;;;;;5040796;28;20218;-72
2022/07/31 13:18:54;;;;;;;4.43;1.80;;;;;;;;;;5043122;28;20291;-70
2022/07/31 13:21:22;;;;;;;2.53;2.00;;;;;;;;;;5042437;28;20566;-71
2022/07/31 13:23:49;;;;;;;5.40;1.97;;;;;;;;;;5041878;28;20298;-70
2022/07/31 13:26:16;;;;;;;4.10;1.80;;;;;;;;;;5038014;28;20230;-70
2022/07/31 13:28:44;;;;;;;5.07;1.80;;;;;;;;;;5044024;28;20205;-70
2022/07/31 13:31:11;;;;;;;5.20;2.10;;;;;;;;;;5042278;28;20214;-71
2022/07/31 13:33:39;;;;;;;5.27;1.70;;;;;;;;;;5041182;28;20223;-70
2022/07/31 13:36:06;;;;;;;2.63;1.83;;;;;;;;;;5043131;28;20313;-70
2022/07/31 13:38:33;;;;;;;3.50;2.10;;;;;;;;;;5043471;28;20659;-70
2022/07/31 13:43:47;;;;;;;2.20;1.60;;;;;;;;;;5041842;28;20332;-71
2022/07/31 13:46:14;;;;;;;3.00;1.60;;;;;;;;;;5040184;28;20219;-70
2022/07/31 13:48:41;;;;;;;2.57;1.90;;;;;;;;;;5042919;28;20657;-71
2022/07/31 13:51:09;;;;;;;2.70;1.70;;;;;;;;;;5043612;28;20314;-71
2022/07/31 13:53:36;;;;;;;3.07;1.80;;;;;;;;;;5043470;28;20226;-71
2022/07/31 13:56:03;;;;;;;3.47;1.63;;;;;;;;;;5040163;28;20230;-73
2022/07/31 13:58:30;;;;;;;4.63;1.70;;;;;;;;;;5041449;28;20278;-70
2022/07/31 14:00:59;;;;;;;4.90;1.60;;;;;;;;;;5043301;28;20557;-71
2022/07/31 14:03:27;;;;;;;5.83;1.77;;;;;;;;;;5040447;28;20200;-71
2022/07/31 14:05:54;;;;;;;5.40;1.47;;;;;;;;;;5044808;28;20219;-71
2022/07/31 14:08:21;;;;;;;3.67;1.60;;;;;;;;;;5038837;28;20285;-72
2022/07/31 14:10:49;;;;;;;2.10;1.47;;;;;;;;;;5043067;28;20286;-69
2022/07/31 14:13:17;;;;;;;2.73;1.53;;;;;;;;;;5041231;28;20600;-70
2022/07/31 14:15:44;;;;;;;4.40;1.60;;;;;;;;;;5041229;28;20669;-72
2022/07/31 14:18:13;;;;;;;2.33;1.40;;;;;;;;;;5040438;28;20278;-72
2022/07/31 14:20:40;;;;;;;3.57;1.30;;;;;;;;;;5041418;28;20295;-72
2022/07/31 14:23:08;;;;;;;2.00;1.20;;;;;;;;;;5039856;28;20206;-69
2022/07/31 14:25:36;;;;;;;3.13;1.40;;;;;;;;;;5042861;28;20238;-71
2022/07/31 14:28:03;;;;;;;3.40;1.30;;;;;;;;;;5039113;28;20205;-70
2022/07/31 14:30:31;;;;;;;3.00;1.33;;;;;;;;;;5039690;28;20195;-71
2022/07/31 14:32:59;;;;;;;3.77;1.40;;;;;;;;;;5040825;28;20755;-71
2022/07/31 14:35:28;;;;;;;2.07;1.20;;;;;;;;;;5044485;28;20818;-72
2022/07/31 14:37:55;;;;;;;2.37;1.10;;;;;;;;;;5044650;28;20204;-71
2022/07/31 14:40:22;;;;;;;2.77;1.23;;;;;;;;;;5042502;28;20673;-71
2022/07/31 14:42:49;;;;;;;1.47;1.10;;;;;;;;;;5041566;28;20199;-71
2022/07/31 14:45:16;;;;;;;1.30;1.13;;;;;;;;;;5041866;28;20196;-70
2022/07/31 14:47:45;;;;;;;1.20;0.90;;;;;;;;;;5046681;28;20225;-70
2022/07/31 14:50:12;;;;;;;1.47;1.10;;;;;;;;;;5045533;28;20234;-70